METAR UND TAF INFORMATION

METAR FOR EGNM
ADDS - METARS form results

(0557 UTC 26 June 2022)
Data provider http://aviationweather.gov/metar/data/
 
METAR text: EGNM 260550Z 15008KT 110V180 9999 FEW025 11/08 Q1006
Conditions at: EGNM (LEEDS AND BRADFO, GB) observed 0550 UTC 26 June 2022
Temperature: 11.0°C (52°F)
Dewpoint: 8.0°C (46°F) [RH = 82%]
Pressure (altimeter): 29.70 inches Hg (1006.0 mb)
Winds: from the SSE (150 degrees) at 9 MPH (8 knots; 4.1 m/s)
Visibility: 6 or more miles (10+ km)
Ceiling: at least 12,000 feet AGL
Clouds: few clouds at 2500 feet AGL
Weather: no significant weather observed at this time

METAR text: EGNM 260520Z 15008KT 9999 FEW025 10/08 Q1006
Conditions at: EGNM (LEEDS AND BRADFO, GB) observed 0520 UTC 26 June 2022
Temperature: 10.0°C (50°F)
Dewpoint: 8.0°C (46°F) [RH = 87%]
Pressure (altimeter): 29.70 inches Hg (1006.0 mb)
Winds: from the SSE (150 degrees) at 9 MPH (8 knots; 4.1 m/s)
Visibility: 6 or more miles (10+ km)
Ceiling: at least 12,000 feet AGL
Clouds: few clouds at 2500 feet AGL
Weather: no significant weather observed at this time

Forecast for: EGNM (LEEDS AND BRADFO, GB)
Text: TAF EGNM 260505Z 2606/2706 11007KT 9999 FEW035
Forecast period: 0600 UTC 26 June 2022 to 0600 UTC 27 June 2022
Forecast type: FROM: standard forecast or significant change
Winds: from the ESE (110 degrees) at 8 MPH (7 knots; 3.6 m/s)
Visibility: 6 or more miles (10+ km)
Ceiling: at least 12,000 feet AGL
Clouds: few clouds at 3500 feet AGL
Weather: no significant weather forecast for this period
Text: BECMG 2606/2609 17010KT
Forecast period: 0600 UTC 26 June 2022 to 0600 UTC 27 June 2022
Forecast type: BECOMING: Conditions expected to become as follows by 0900 UTC 26 June 2022
Winds: from the S (170 degrees) at 12 MPH (10 knots; 5.1 m/s)
Visibility: 6 or more miles (10+ km)
Ceiling: at least 12,000 feet AGL
Clouds: few clouds at 3500 feet AGL
Weather: no significant weather forecast for this period
Text: TEMPO 2608/2621 19018G30KT
Forecast period: 0800 to 2100 UTC 26 June 2022
Forecast type: TEMPORARY: The following changes expected for less than half the time period
Winds: from the S (190 degrees) at 21 MPH (18 knots; 9.3 m/s)
gusting to 34 MPH (30 knots; 15.4 m/s)
Visibility: missing
Ceiling: unknown
Clouds: missing
Weather: no significant weather forecast for this period

 FLUGHAFENKARTE

 RUNWAY INFORMATION
Runway 14 Runway length 7382 ft Runway width 150 ft
Runway elevation 673 ft Runway displaced threshold 958 ft Runway heading 138
Runway 32 Runway length 7382 ft Runway width 150 ft
Runway elevation 662 ft Runway displaced threshold 962 ft Runway heading 318

 AIRPORT FREQUENCIES
Type APP Name APP Frequency 123.75 MHZ
Type ATIS Name ATIS Frequency 118.025 MHZ
Type TWR Name TWR Frequency 120.3 MHZ
Type ILS Rw 32/ Name Frequency 110.9 MHZ

 AIRPORT NEAR NAVIGATION AIDS
Type NDB Name Leeds Bradford Frequency 403 KHZ